createdAt,value
2022-09-26T00:03:50.611Z,99.90
2022-09-26T00:07:52.331Z,99.90
2022-09-26T00:11:54.230Z,99.90
2022-09-26T00:15:57.102Z,99.90
2022-09-26T00:19:58.760Z,99.90
2022-09-26T00:24:01.694Z,99.90
2022-09-26T00:28:03.409Z,99.90
2022-09-26T00:32:05.057Z,99.90
2022-09-26T00:36:08.754Z,99.90
2022-09-26T00:40:11.128Z,99.90
2022-09-26T00:44:42.129Z,99.90
2022-09-26T00:48:46.910Z,99.90
2022-09-26T00:52:58.090Z,99.90
2022-09-26T00:57:05.461Z,99.90
2022-09-26T01:01:08.056Z,99.90
2022-09-26T01:05:12.740Z,99.90
2022-09-26T01:09:15.792Z,99.90
2022-09-26T01:13:18.602Z,99.90
2022-09-26T01:17:22.009Z,99.90
2022-09-26T01:22:16.044Z,99.90
2022-09-26T01:26:28.577Z,99.90
2022-09-26T01:30:43.473Z,99.90
2022-09-26T01:35:02.670Z,99.90
2022-09-26T01:39:22.674Z,99.90
2022-09-26T01:43:31.475Z,99.90
2022-09-26T01:47:56.276Z,99.90
2022-09-26T01:52:20.259Z,99.90
2022-09-26T01:56:28.033Z,99.90
2022-09-26T02:00:30.225Z,99.90
2022-09-26T02:04:37.916Z,99.90
2022-09-26T02:08:46.820Z,99.90
2022-09-26T02:12:55.232Z,99.90
2022-09-26T02:17:05.345Z,99.90
2022-09-26T02:21:13.952Z,99.90
2022-09-26T02:25:15.765Z,99.90
2022-09-26T02:29:17.785Z,99.90
2022-09-26T02:33:19.833Z,99.90
2022-09-26T02:37:22.178Z,99.90
2022-09-26T02:41:29.646Z,99.90
2022-09-26T02:45:39.926Z,99.90
2022-09-26T02:49:57.756Z,99.90
2022-09-26T02:54:13.992Z,99.90
2022-09-26T02:58:36.254Z,99.90
2022-09-26T03:02:50.699Z,99.90
2022-09-26T03:06:59.044Z,99.90
2022-09-26T03:11:05.142Z,99.90
2022-09-26T03:15:09.284Z,99.90
2022-09-26T03:19:32.287Z,99.90
2022-09-26T03:23:34.848Z,99.90
2022-09-26T03:27:38.913Z,99.90
2022-09-26T03:31:40.612Z,99.90
2022-09-26T03:35:42.288Z,99.90
2022-09-26T03:39:44.972Z,99.90
2022-09-26T03:43:46.687Z,99.90
2022-09-26T03:47:48.356Z,99.90
2022-09-26T03:51:50.094Z,99.90
2022-09-26T03:55:51.766Z,99.90
2022-09-26T03:59:55.151Z,99.90
2022-09-26T04:03:57.935Z,99.90
2022-09-26T04:08:01.126Z,99.90
2022-09-26T04:12:02.795Z,99.90
2022-09-26T04:16:05.869Z,99.90
2022-09-26T04:20:09.628Z,99.90
2022-09-26T04:24:16.790Z,99.90
2022-09-26T04:28:18.784Z,99.90
2022-09-26T04:32:20.506Z,99.90
2022-09-26T04:36:23.195Z,99.90
2022-09-26T04:40:24.952Z,99.90
2022-09-26T04:44:33.913Z,99.90
2022-09-26T04:48:36.154Z,99.90
2022-09-26T04:52:37.806Z,99.90
2022-09-26T04:56:39.517Z,99.90
2022-09-26T05:00:47.640Z,99.90
2022-09-26T05:04:49.702Z,99.90
2022-09-26T05:08:51.365Z,99.90
2022-09-26T05:12:53.232Z,99.90
2022-09-26T05:16:54.834Z,99.90
2022-09-26T05:20:57.388Z,99.90
2022-09-26T05:25:17.502Z,99.90
2022-09-26T05:29:20.427Z,99.90
2022-09-26T05:33:22.350Z,99.90
2022-09-26T05:37:24.030Z,99.90
2022-09-26T05:41:29.476Z,99.90
2022-09-26T05:45:31.206Z,99.90
2022-09-26T05:49:34.006Z,99.90
2022-09-26T05:53:35.833Z,99.90
2022-09-26T05:57:37.453Z,99.90
2022-09-26T06:01:39.148Z,99.90
2022-09-26T06:05:42.221Z,99.90
2022-09-26T06:09:44.616Z,99.90
2022-09-26T06:13:46.606Z,99.90
2022-09-26T06:17:48.417Z,99.90
2022-09-26T06:21:50.606Z,99.90
2022-09-26T06:25:52.346Z,99.90
2022-09-26T06:29:53.951Z,99.90
2022-09-26T06:33:55.973Z,99.90
2022-09-26T06:37:59.342Z,99.90
2022-09-26T06:42:02.389Z,99.90
2022-09-26T06:46:09.494Z,99.90
2022-09-26T06:50:11.336Z,99.90
2022-09-26T06:54:12.972Z,99.90
2022-09-26T06:58:14.948Z,99.90
2022-09-26T07:02:16.982Z,99.90
2022-09-26T07:06:18.706Z,99.90
2022-09-26T07:10:20.766Z,99.90
2022-09-26T07:14:22.685Z,99.90
2022-09-26T07:18:24.622Z,99.90
2022-09-26T07:22:26.286Z,99.90
2022-09-26T07:26:27.916Z,99.90
2022-09-26T07:30:29.522Z,99.90
2022-09-26T07:34:32.085Z,99.70
2022-09-26T07:38:33.835Z,99.70
2022-09-26T07:42:38.657Z,99.90
2022-09-26T07:46:59.038Z,99.90
2022-09-26T07:51:03.557Z,99.80
2022-09-26T07:55:10.204Z,99.80
2022-09-26T07:59:13.269Z,99.70
2022-09-26T08:03:15.179Z,99.40
2022-09-26T08:07:16.907Z,99.70
2022-09-26T08:11:20.387Z,99.90
2022-09-26T08:15:22.030Z,99.50
2022-09-26T08:19:25.713Z,99.70
2022-09-26T08:23:29.379Z,99.60
2022-09-26T08:27:35.093Z,99.80
2022-09-26T08:31:38.526Z,99.90
2022-09-26T08:35:40.522Z,99.90
2022-09-26T08:39:42.233Z,99.90
2022-09-26T08:44:05.433Z,99.30
2022-09-26T08:48:27.452Z,99.90
2022-09-26T08:52:47.278Z,99.30
2022-09-26T08:56:53.979Z,98.80
2022-09-26T09:01:00.466Z,98.80
2022-09-26T09:05:26.136Z,99.10
2022-09-26T09:09:27.992Z,99.90
2022-09-26T09:13:38.861Z,99.00
2022-09-26T09:17:57.831Z,99.80
2022-09-26T09:21:59.431Z,99.00
2022-09-26T09:30:39.698Z,99.00
2022-09-26T09:34:43.677Z,98.30
2022-09-26T09:38:48.700Z,98.90
2022-09-26T09:43:02.879Z,98.00
2022-09-26T09:47:16.383Z,98.10
2022-09-26T09:51:24.166Z,97.20
2022-09-26T09:55:30.534Z,97.10
2022-09-26T10:00:02.058Z,96.30
2022-09-26T10:04:16.098Z,96.50
2022-09-26T10:08:29.441Z,96.60
2022-09-26T10:12:34.957Z,96.20
2022-09-26T10:16:56.541Z,95.90
2022-09-26T10:21:06.645Z,95.80
2022-09-26T10:25:22.499Z,95.80
2022-09-26T10:29:35.063Z,94.30
2022-09-26T10:33:43.464Z,94.10
2022-09-26T10:38:21.746Z,95.00
2022-09-26T10:42:28.615Z,94.30
2022-09-26T10:46:33.505Z,93.70
2022-09-26T10:50:35.346Z,93.50
2022-09-26T10:54:42.422Z,93.20
2022-09-26T10:58:47.082Z,93.10
2022-09-26T11:02:52.190Z,93.10
2022-09-26T11:06:53.977Z,92.90
2022-09-26T11:10:58.380Z,92.30
2022-09-26T11:15:06.561Z,93.50
2022-09-26T11:19:29.859Z,93.80
2022-09-26T11:23:54.871Z,93.30
2022-09-26T11:28:07.708Z,92.60
2022-09-26T11:32:24.474Z,92.80
2022-09-26T11:36:47.345Z,92.50
2022-09-26T11:41:39.314Z,91.50
2022-09-26T11:45:56.108Z,92.10
2022-09-26T11:50:20.306Z,92.00
2022-09-26T11:54:35.978Z,91.00
2022-09-26T11:59:16.586Z,91.20
2022-09-26T12:03:47.594Z,87.50
2022-09-26T12:08:23.097Z,88.70
2022-09-26T12:12:41.796Z,90.30
2022-09-26T12:16:46.580Z,89.60
2022-09-26T12:21:00.149Z,90.10
2022-09-26T12:25:27.737Z,89.70
2022-09-26T12:29:50.718Z,90.60
2022-09-26T12:34:24.267Z,90.50
2022-09-26T12:38:33.264Z,89.80
2022-09-26T12:42:53.648Z,89.70
2022-09-26T12:46:58.680Z,90.70
2022-09-26T12:51:06.392Z,89.90
2022-09-26T12:55:17.961Z,90.10
2022-09-26T12:59:52.878Z,90.60
2022-09-26T13:04:59.664Z,90.10
2022-09-26T13:09:35.702Z,90.70
2022-09-26T13:14:15.421Z,91.10
2022-09-26T13:18:26.323Z,90.70
2022-09-26T13:22:39.637Z,91.20
2022-09-26T13:26:46.778Z,91.00
2022-09-26T13:30:53.604Z,91.30
2022-09-26T13:35:19.473Z,90.90
2022-09-26T13:39:56.369Z,90.90
2022-09-26T13:44:17.729Z,90.20
2022-09-26T13:48:40.955Z,90.90
2022-09-26T13:53:10.096Z,91.00
2022-09-26T13:57:38.983Z,90.10
2022-09-26T14:02:18.570Z,87.70
2022-09-26T14:06:28.372Z,88.70
2022-09-26T14:10:51.975Z,87.30
2022-09-26T14:15:24.614Z,87.20
2022-09-26T14:19:36.822Z,86.20
2022-09-26T14:23:42.797Z,86.90
2022-09-26T14:27:46.721Z,87.90
2022-09-26T14:32:01.253Z,87.40
2022-09-26T14:36:24.823Z,88.80
2022-09-26T14:40:57.779Z,88.70
2022-09-26T14:45:05.005Z,88.10
2022-09-26T14:49:07.975Z,89.60
2022-09-26T14:53:35.297Z,90.90
2022-09-26T14:57:37.402Z,91.10
2022-09-26T15:01:39.872Z,91.00
2022-09-26T15:05:42.980Z,91.10
2022-09-26T15:10:08.890Z,91.10
2022-09-26T15:14:29.385Z,91.50
2022-09-26T15:18:40.875Z,91.70
2022-09-26T15:22:43.157Z,91.90
2022-09-26T15:26:45.048Z,91.70
2022-09-26T15:30:46.909Z,91.70
2022-09-26T15:34:49.506Z,92.40
2022-09-26T15:38:51.379Z,92.60
2022-09-26T15:43:09.475Z,92.50
2022-09-26T15:47:29.897Z,92.30
2022-09-26T15:51:40.900Z,92.40
2022-09-26T15:55:58.233Z,90.80
2022-09-26T16:00:01.772Z,91.50
2022-09-26T16:04:17.128Z,91.20
2022-09-26T16:08:38.892Z,91.80
2022-09-26T16:12:41.793Z,92.80
2022-09-26T16:16:43.783Z,93.00
2022-09-26T16:20:45.505Z,94.20
2022-09-26T16:24:47.260Z,94.00
2022-09-26T16:28:52.913Z,94.00
2022-09-26T16:33:29.296Z,94.00
2022-09-26T16:37:31.057Z,93.50
2022-09-26T16:42:00.679Z,93.30
2022-09-26T16:45:57.104Z,92.80
2022-09-26T16:50:31.113Z,93.00
2022-09-26T16:54:32.958Z,93.70
2022-09-26T16:58:34.890Z,96.30
2022-09-26T17:02:36.834Z,96.90
2022-09-26T17:06:38.668Z,97.40
2022-09-26T17:10:41.284Z,98.50
2022-09-26T17:14:45.354Z,98.40
2022-09-26T17:18:47.105Z,99.90
2022-09-26T17:22:48.972Z,99.00
2022-09-26T17:27:00.250Z,98.90
2022-09-26T17:31:06.716Z,97.40
2022-09-26T17:35:22.604Z,96.80
2022-09-26T17:39:29.076Z,98.00
2022-09-26T17:43:33.918Z,99.10
2022-09-26T17:47:35.698Z,99.20
2022-09-26T17:51:37.404Z,98.70
2022-09-26T17:55:39.080Z,97.80
2022-09-26T17:59:42.573Z,98.50
2022-09-26T18:03:45.005Z,98.80
2022-09-26T18:07:49.016Z,98.70
2022-09-26T18:12:00.524Z,99.40
2022-09-26T18:16:03.450Z,99.90
2022-09-26T18:20:05.569Z,99.90
2022-09-26T18:24:17.235Z,99.90
2022-09-26T18:28:22.918Z,99.90
2022-09-26T18:32:32.734Z,99.90
2022-09-26T18:36:35.175Z,99.90
2022-09-26T18:40:41.893Z,99.70
2022-09-26T18:44:44.024Z,99.30
2022-09-26T18:48:47.223Z,99.30
2022-09-26T18:52:49.182Z,99.30
2022-09-26T18:57:09.349Z,99.70
2022-09-26T19:01:30.742Z,99.90
2022-09-26T19:05:32.597Z,99.90
2022-09-26T19:09:35.620Z,99.90
2022-09-26T19:13:37.333Z,99.90
2022-09-26T19:17:39.028Z,99.80
2022-09-26T19:21:48.295Z,99.80
2022-09-26T19:25:50.558Z,99.90
2022-09-26T19:29:59.334Z,99.60
2022-09-26T19:34:03.175Z,99.60
2022-09-26T19:38:17.107Z,99.90
2022-09-26T19:42:18.916Z,99.80
2022-09-26T19:46:27.514Z,99.60
2022-09-26T19:50:32.551Z,99.60
2022-09-26T19:54:34.806Z,99.90
2022-09-26T19:58:36.588Z,99.90
2022-09-26T20:02:38.648Z,99.90
2022-09-26T20:06:40.684Z,99.90
2022-09-26T20:10:42.984Z,99.90
2022-09-26T20:14:44.676Z,99.90
2022-09-26T20:18:48.869Z,99.90
2022-09-26T20:22:53.015Z,99.90
2022-09-26T20:26:55.673Z,99.90
2022-09-26T20:30:58.623Z,99.90
2022-09-26T20:35:00.877Z,99.90
2022-09-26T20:39:08.425Z,99.90
2022-09-26T20:43:16.607Z,99.90
2022-09-26T20:47:21.031Z,99.90
2022-09-26T20:51:30.038Z,99.90
2022-09-26T20:55:34.391Z,99.90
2022-09-26T20:59:36.425Z,99.90
2022-09-26T21:03:49.196Z,99.90
2022-09-26T21:07:56.245Z,99.90
2022-09-26T21:11:57.969Z,99.90
2022-09-26T21:15:59.818Z,99.90
2022-09-26T21:20:02.104Z,99.90
2022-09-26T21:24:04.441Z,99.90
2022-09-26T21:28:12.307Z,99.90
2022-09-26T21:32:19.058Z,99.90
2022-09-26T21:36:23.593Z,99.90
2022-09-26T21:40:29.760Z,99.90
2022-09-26T21:44:44.702Z,99.90
2022-09-26T21:48:46.470Z,99.90
2022-09-26T21:52:53.177Z,99.90
2022-09-26T21:57:01.181Z,99.90
2022-09-26T22:01:02.927Z,99.90
2022-09-26T22:05:05.657Z,99.90
2022-09-26T22:09:07.828Z,99.90
2022-09-26T22:13:09.541Z,99.90
2022-09-26T22:17:11.370Z,99.90
2022-09-26T22:21:14.778Z,99.90
2022-09-26T22:25:16.786Z,99.90
2022-09-26T22:29:18.510Z,99.90
2022-09-26T22:33:21.767Z,99.90
2022-09-26T22:37:23.963Z,99.90
2022-09-26T22:41:25.700Z,99.90
2022-09-26T22:45:27.734Z,99.90
2022-09-26T22:49:29.437Z,99.90
2022-09-26T22:53:34.185Z,99.90
2022-09-26T22:57:36.152Z,99.90
2022-09-26T23:01:38.125Z,99.90
2022-09-26T23:05:40.868Z,99.90
2022-09-26T23:09:42.585Z,99.90
2022-09-26T23:13:45.515Z,99.90
2022-09-26T23:17:47.632Z,99.90
2022-09-26T23:21:49.347Z,99.90
2022-09-26T23:25:51.080Z,99.90
2022-09-26T23:30:02.201Z,99.90
2022-09-26T23:34:04.119Z,99.90
2022-09-26T23:38:05.904Z,99.90
2022-09-26T23:42:07.586Z,99.90
2022-09-26T23:46:10.373Z,99.90
2022-09-26T23:50:12.231Z,99.90
2022-09-26T23:54:14.166Z,99.90
2022-09-26T23:58:15.910Z,99.90
